KTOC

Details ICAO KTOC (TOC)
Name TOCCOA RG LETOURNEAU FLD
Region United States
Timezone America/New_York (UTC-5.0)
Plans Departing 4
Arriving 3
Stats Elevation 996 ft / 304 m (AMSL)
Location 34.593333° -83.295800°
Runways 2
Magnetic Variation 6.009° W
Sunrise 2017-12-12 12:32:19 UTC / 2017-12-12 07:32:19 Local
Sunset 2017-12-12 22:24:35 UTC / 2017-12-12 17:24:35 Local
Advertisement - Login to hide

Runways

ID Width Length Bearing (true) Bearing (mag) Surface Threshold Offset Overrun Length
02 100 ft / 30 m 5,010 ft / 1,527 m 20.76° 26.77° Asphalt 0 ft / 0 m 0 ft / 0 m
09 50 ft / 15 m 2,945 ft / 898 m 88.30° 94.31° Asphalt 0 ft / 0 m 0 ft / 0 m
20 100 ft / 30 m 5,010 ft / 1,527 m 200.76° 206.77° Asphalt 0 ft / 0 m 0 ft / 0 m
27 50 ft / 15 m 2,945 ft / 898 m 268.31° 274.32° Asphalt 0 ft / 0 m 0 ft / 0 m

Map

Weather


0- 5 10 15 20 25 30 35+ Temperature / ° C

Clouds and Precipitation
Forecast for 2017-12-12 18:00 UTC. Updated 2 hours ago

Ground ~20,000 ft ~40,000 ft Winds

METAR

KTOC 121435Z AUTO 33006KT 10SM CLR 11/00 A2981 RMK AO2 T01110000

TAF

Not found

Frequencies

Unicom 122.80 MHz CTAF/UNICOM
Warning: Do not use this data for real-world aviation or navigation. No guarantee of current accuracy is given.